Time;durP1;ratioP1;P1;durP2;ratioP2;P2;SDS_P1;SDS_P2;PMS_P1;PMS_P2;Temp;Humidity;BMP_temperature;BMP_pressure;BME280_temperature;BME280_humidity;BME280_pressure;Samples;Min_cycle;Max_cycle;Signal;HPM_P1;HPM_P2
2021/01/12 00:00:29;;;;;;;19.67;12.87;;;;;;;-1.41;82.76;99625.17;1781807;80;25072;-69
2021/01/12 00:02:58;;;;;;;20.60;12.83;;;;;;;-1.41;82.71;99621.30;1775950;80;25692;-68
2021/01/12 00:05:25;;;;;;;18.60;12.43;;;;;;;-1.38;82.61;99624.64;1754130;80;25350;-68
2021/01/12 00:07:52;;;;;;;18.77;12.47;;;;;;;-1.37;82.51;99627.63;1750929;82;25239;-68
2021/01/12 00:10:19;;;;;;;19.60;13.00;;;;;;;-1.36;82.41;99619.44;1750911;81;25612;-68
2021/01/12 00:12:46;;;;;;;17.70;12.47;;;;;;;-1.32;82.23;99623.64;1751005;82;25077;-68
2021/01/12 00:15:13;;;;;;;19.13;13.33;;;;;;;-1.32;82.17;99626.22;1751156;82;25243;-68
2021/01/12 00:17:40;;;;;;;18.00;12.33;;;;;;;-1.29;82.21;99626.55;1750891;82;25153;-70
2021/01/12 00:20:08;;;;;;;18.90;12.60;;;;;;;-1.25;81.74;99632.05;1750966;82;25746;-68
2021/01/12 00:22:35;;;;;;;15.93;11.50;;;;;;;-1.27;81.65;99629.93;1750946;82;25212;-69
2021/01/12 00:25:02;;;;;;;19.13;12.17;;;;;;;-1.25;81.48;99630.75;1750987;82;25204;-68
2021/01/12 00:27:29;;;;;;;19.33;12.40;;;;;;;-1.28;81.70;99622.64;1750946;82;25260;-68
2021/01/12 00:29:56;;;;;;;17.37;11.87;;;;;;;-1.26;81.63;99622.60;1750857;82;25861;-69
2021/01/12 00:35:01;;;;;;;16.47;11.70;;;;;;;-1.16;81.51;99608.53;1849747;76;26911;-68
2021/01/12 00:37:28;;;;;;;17.00;11.53;;;;;;;-1.20;81.38;99614.23;1819922;77;25655;-68
2021/01/12 00:39:55;;;;;;;17.77;11.20;;;;;;;-1.21;81.42;99598.79;1819838;77;25270;-68
2021/01/12 00:42:22;;;;;;;14.77;11.00;;;;;;;-1.20;81.55;99586.30;1819646;78;25200;-68
2021/01/12 00:44:49;;;;;;;17.37;11.97;;;;;;;-1.15;80.89;99572.35;1819801;77;25628;-68
2021/01/12 00:47:16;;;;;;;16.63;10.83;;;;;;;-1.12;80.50;99572.72;1819866;78;25188;-68
2021/01/12 00:49:44;;;;;;;14.70;10.70;;;;;;;-1.15;80.18;99571.52;1818768;78;25259;-68
2021/01/12 00:52:11;;;;;;;14.00;10.40;;;;;;;-1.14;80.01;99570.61;1787485;79;25142;-69
2021/01/12 00:54:38;;;;;;;15.57;10.60;;;;;;;-1.17;80.21;99582.34;1787428;79;25266;-68
2021/01/12 00:57:05;;;;;;;17.90;12.03;;;;;;;-1.20;80.42;99587.59;1787447;79;25383;-68
2021/01/12 00:59:32;;;;;;;57.30;24.50;;;;;;;-1.19;80.34;99589.27;1756975;80;25311;-68
2021/01/12 01:02:04;;;;;;;37.70;19.17;;;;;;;-1.18;80.03;99590.50;1787492;79;25264;-69
2021/01/12 01:04:30;;;;;;;19.20;11.47;;;;;;;-1.19;79.69;99586.26;1787568;80;25747;-69
2021/01/12 01:06:57;;;;;;;28.47;15.83;;;;;;;-1.19;79.81;99582.39;1757117;80;25269;-68
2021/01/12 01:09:24;;;;;;;31.70;17.90;;;;;;;-1.19;79.69;99583.67;1787549;79;25601;-68
2021/01/12 01:11:51;;;;;;;23.80;12.97;;;;;;;-1.19;79.43;99583.67;1787534;79;25201;-69
2021/01/12 01:14:20;;;;;;;14.23;9.40;;;;;;;-1.19;79.37;99577.22;1787522;79;25685;-69
2021/01/12 01:16:47;;;;;;;15.23;9.90;;;;;;;-1.20;79.10;99568.23;1787445;79;25691;-68
2021/01/12 01:19:15;;;;;;;15.33;9.83;;;;;;;-1.21;78.98;99565.23;1787338;80;25337;-69
2021/01/12 01:21:41;;;;;;;16.40;10.40;;;;;;;-1.22;79.24;99564.86;1787448;79;25914;-69
2021/01/12 01:24:08;;;;;;;13.93;9.13;;;;;;;-1.22;79.00;99555.38;1787559;80;25134;-69
2021/01/12 01:26:35;;;;;;;12.63;7.73;;;;;;;-1.19;79.04;99559.16;1787590;79;25138;-68
2021/01/12 01:29:02;;;;;;;12.93;7.93;;;;;;;-1.16;78.61;99545.30;1787574;79;25102;-68
2021/01/12 01:31:39;;;;;;;11.80;8.03;;;;;;;-1.14;78.02;99548.24;1787337;79;25356;-70
2021/01/12 01:34:06;;;;;;;10.70;7.77;;;;;;;-1.15;78.03;99554.28;1787489;79;25332;-69
2021/01/12 01:36:33;;;;;;;10.83;7.60;;;;;;;-1.11;77.73;99548.58;1787469;80;25333;-68
2021/01/12 01:38:59;;;;;;;12.20;7.93;;;;;;;-1.08;77.74;99545.91;1787405;79;25589;-68
2021/01/12 01:41:26;;;;;;;11.97;7.93;;;;;;;-1.05;77.94;99541.11;1787192;79;25133;-69
2021/01/12 01:43:53;;;;;;;10.57;7.27;;;;;;;-1.03;77.90;99526.41;1787312;79;25238;-69
2021/01/12 01:46:19;;;;;;;10.53;7.03;;;;;;;-1.01;77.90;99534.48;1786859;80;25764;-68
2021/01/12 01:48:49;;;;;;;9.10;6.30;;;;;;;-0.95;77.04;99539.92;1786979;79;25305;-69
2021/01/12 01:51:16;;;;;;;8.50;6.43;;;;;;;-0.93;76.57;99544.58;1786973;78;25328;-69
2021/01/12 01:53:43;;;;;;;9.27;6.53;;;;;;;-0.92;76.71;99534.66;1786892;79;25624;-68
2021/01/12 01:56:09;;;;;;;10.57;6.43;;;;;;;-0.84;75.41;99533.11;1786807;80;25265;-68
2021/01/12 01:58:40;;;;;;;8.73;6.13;;;;;;;-0.86;75.70;99529.73;1786959;79;25104;-68
2021/01/12 02:01:08;;;;;;;8.80;6.17;;;;;;;-0.88;75.71;99519.45;1786897;80;25222;-69
2021/01/12 02:04:02;;;;;;;9.23;6.40;;;;;;;-0.84;75.87;99507.28;1786917;79;25272;-68
2021/01/12 02:09:24;;;;;;;8.67;6.20;;;;;;;-0.74;74.72;99485.42;1889308;75;27495;-69
2021/01/12 02:11:56;;;;;;;7.90;5.87;;;;;;;-0.79;74.92;99486.89;1860265;77;25684;-69
2021/01/12 02:14:26;;;;;;;8.67;6.00;;;;;;;-0.78;74.70;99488.56;1860220;77;25296;-69
2021/01/12 02:16:53;;;;;;;7.47;5.70;;;;;;;-0.78;74.48;99489.85;1860074;77;25731;-69
2021/01/12 02:19:21;;;;;;;8.00;6.00;;;;;;;-0.77;74.38;99475.22;1854865;77;25303;-69
2021/01/12 02:21:51;;;;;;;8.07;6.13;;;;;;;-0.70;73.10;99468.08;1860170;76;25218;-69
2021/01/12 02:24:18;;;;;;;8.50;5.80;;;;;;;-0.73;73.19;99466.92;1859923;77;25703;-69
2021/01/12 02:26:45;;;;;;;7.73;5.77;;;;;;;-0.78;73.40;99470.48;1860158;77;25269;-68
2021/01/12 02:29:11;;;;;;;8.97;5.93;;;;;;;-0.78;73.26;99470.48;1860061;77;25265;-69
2021/01/12 02:31:39;;;;;;;9.47;5.77;;;;;;;-0.78;72.99;99470.48;1860066;77;25288;-68
2021/01/12 02:34:09;;;;;;;7.60;5.47;;;;;;;-0.78;72.36;99471.77;1800604;77;25626;-69
2021/01/12 02:36:36;;;;;;;8.47;5.30;;;;;;;-0.81;72.77;99466.70;1859693;77;25265;-69
2021/01/12 02:39:03;;;;;;;6.87;5.20;;;;;;;-0.81;72.66;99455.09;1860202;76;25214;-69
2021/01/12 02:41:32;;;;;;;8.23;5.27;;;;;;;-0.80;72.45;99457.24;1860079;77;25320;-69
2021/01/12 02:44:00;;;;;;;8.33;5.90;;;;;;;-0.81;72.66;99455.55;1860027;77;25174;-69
2021/01/12 02:46:26;;;;;;;6.10;5.20;;;;;;;-0.85;72.74;99453.97;1860205;77;25198;-69
2021/01/12 02:48:53;;;;;;;8.90;6.20;;;;;;;-0.85;72.83;99447.52;1859999;77;25237;-68
2021/01/12 02:51:20;;;;;;;7.43;5.67;;;;;;;-0.87;72.75;99447.99;1836405;77;25737;-69
2021/01/12 02:53:46;;;;;;;7.37;5.60;;;;;;;-0.85;72.31;99429.45;1826351;78;25342;-69
2021/01/12 02:56:13;;;;;;;9.27;5.60;;;;;;;-0.95;73.06;99427.16;1826359;78;25717;-68
2021/01/12 02:58:40;;;;;;;10.47;5.90;;;;;;;-0.91;72.69;99424.02;1826420;77;25322;-69
2021/01/12 03:01:06;;;;;;;7.57;5.17;;;;;;;-0.94;72.75;99417.66;1826409;78;25634;-69
2021/01/12 03:03:33;;;;;;;8.10;5.70;;;;;;;-0.98;73.01;99408.34;1826408;77;25113;-69
2021/01/12 03:06:00;;;;;;;7.07;5.33;;;;;;;-1.01;73.13;99403.28;1821249;78;25508;-69
2021/01/12 03:08:26;;;;;;;6.60;5.17;;;;;;;-1.00;72.99;99403.69;1811806;78;25253;-69
2021/01/12 03:10:53;;;;;;;6.87;5.30;;;;;;;-1.03;73.06;99388.30;1802038;78;25636;-69
2021/01/12 03:13:19;;;;;;;6.63;5.37;;;;;;;-1.07;73.18;99391.86;1801995;78;25347;-68
2021/01/12 03:15:46;;;;;;;6.97;5.50;;;;;;;-1.08;73.01;99383.74;1802079;79;25197;-69
2021/01/12 03:18:13;;;;;;;8.03;5.47;;;;;;;-1.11;73.00;99380.80;1801753;78;25571;-69
2021/01/12 03:20:40;;;;;;;7.07;5.10;;;;;;;-1.15;73.48;99386.52;1801439;79;25201;-69
2021/01/12 03:23:07;;;;;;;7.57;4.93;;;;;;;-1.17;73.51;99377.16;1801334;79;25197;-69
2021/01/12 03:25:33;;;;;;;7.83;5.57;;;;;;;-1.16;73.66;99370.66;1801551;78;25249;-69
2021/01/12 03:28:00;;;;;;;7.03;5.37;;;;;;;-1.16;73.76;99371.08;1801510;78;25276;-68
2021/01/12 03:30:27;;;;;;;6.97;5.07;;;;;;;-1.14;73.60;99370.16;1801517;79;25212;-69
2021/01/12 03:32:54;;;;;;;6.30;5.50;;;;;;;-1.11;73.45;99365.31;1801408;78;25668;-69
2021/01/12 03:35:21;;;;;;;8.00;5.60;;;;;;;-1.16;73.60;99362.91;1801553;79;25150;-69
2021/01/12 03:37:48;;;;;;;7.00;5.30;;;;;;;-1.14;73.76;99349.93;1801403;78;25202;-69
2021/01/12 03:40:15;;;;;;;6.67;5.10;;;;;;;-1.10;73.80;99351.53;1801524;79;25723;-69
2021/01/12 03:42:42;;;;;;;6.77;5.17;;;;;;;-1.06;73.43;99341.48;1801377;78;25291;-69
2021/01/12 03:45:09;;;;;;;9.20;5.60;;;;;;;-1.08;73.63;99339.86;1801342;78;25742;-69
2021/01/12 03:47:36;;;;;;;7.37;5.20;;;;;;;-1.07;73.56;99337.23;1801388;78;25260;-68
2021/01/12 03:50:07;;;;;;;6.40;4.80;;;;;;;-1.03;73.30;99340.55;1801501;78;25315;-69
2021/01/12 03:52:34;;;;;;;8.00;5.83;;;;;;;-1.05;73.82;99337.19;1801351;78;25555;-69
2021/01/12 03:55:01;;;;;;;8.53;6.17;;;;;;;-1.02;73.90;99333.18;1801432;78;25320;-70
2021/01/12 03:57:28;;;;;;;10.40;6.60;;;;;;;-0.97;73.49;99330.84;1801329;78;25723;-70
2021/01/12 03:59:55;;;;;;;10.27;5.37;;;;;;;-0.96;73.05;99327.81;1801353;78;25280;-70
2021/01/12 04:02:22;;;;;;;14.73;6.03;;;;;;;-0.98;73.24;99329.61;1801472;78;25743;-69
2021/01/12 04:04:49;;;;;;;18.90;7.43;;;;;;;-1.00;73.07;99322.37;1801241;78;25292;-68
2021/01/12 04:07:15;;;;;;;31.87;9.63;;;;;;;-0.99;72.99;99323.61;1801184;78;25321;-68
2021/01/12 04:09:42;;;;;;;38.47;11.37;;;;;;;-1.04;73.45;99319.48;1761763;80;25298;-68
2021/01/12 04:12:09;;;;;;;18.57;7.73;;;;;;;-1.02;73.36;99318.98;1789911;78;25281;-71
2021/01/12 04:14:36;;;;;;;13.30;7.27;;;;;;;-1.04;73.51;99316.91;1789908;78;25241;-68
2021/01/12 04:17:03;;;;;;;18.13;10.10;;;;;;;-1.06;73.75;99296.77;1789935;79;25312;-69
2021/01/12 04:19:29;;;;;;;12.23;7.20;;;;;;;-1.03;73.58;99302.66;1789793;78;25209;-69
2021/01/12 04:21:56;;;;;;;8.20;5.80;;;;;;;-1.04;73.69;99302.70;1789669;78;25605;-68
2021/01/12 04:24:23;;;;;;;14.10;8.33;;;;;;;-1.01;73.36;99298.73;1789891;80;25198;-68
2021/01/12 04:26:49;;;;;;;6.90;5.50;;;;;;;-1.03;73.42;99292.79;1789940;80;25673;-69
2021/01/12 04:29:16;;;;;;;11.00;7.53;;;;;;;-1.05;73.56;99286.39;1789877;79;25256;-68
2021/01/12 04:31:43;;;;;;;7.80;6.00;;;;;;;-1.04;73.62;99291.09;1789870;80;25313;-69
2021/01/12 04:34:09;;;;;;;9.33;5.97;;;;;;;-1.03;73.75;99292.33;1789869;80;25669;-69
2021/01/12 04:36:36;;;;;;;8.20;6.07;;;;;;;-0.97;73.79;99287.42;1789863;78;25250;-68
2021/01/12 04:39:03;;;;;;;9.23;5.70;;;;;;;-0.94;73.99;99282.12;1790006;78;25322;-69
2021/01/12 04:41:30;;;;;;;8.83;6.23;;;;;;;-0.86;73.71;99281.40;1789907;80;25782;-69
2021/01/12 04:43:56;;;;;;;8.00;5.83;;;;;;;-0.84;73.56;99271.88;1789806;78;25063;-68
2021/01/12 04:46:23;;;;;;;7.17;5.90;;;;;;;-0.84;73.68;99264.13;1789837;80;25304;-69
2021/01/12 04:48:50;;;;;;;7.07;5.97;;;;;;;-0.81;73.41;99263.16;1790028;80;25206;-69
2021/01/12 04:51:16;;;;;;;8.63;5.80;;;;;;;-0.82;73.43;99259.75;1789984;78;25364;-68
2021/01/12 04:53:48;;;;;;;7.50;5.37;;;;;;;-0.83;73.72;99258.51;1789908;78;25514;-68
2021/01/12 04:56:19;;;;;;;7.17;5.13;;;;;;;-0.83;73.77;99252.89;1789683;78;25352;-69
2021/01/12 04:58:51;;;;;;;7.77;5.70;;;;;;;-0.82;73.66;99244.25;1790035;78;25658;-69
2021/01/12 05:01:22;;;;;;;7.60;6.10;;;;;;;-0.83;73.66;99239.14;1789920;80;25305;-69
2021/01/12 05:03:51;;;;;;;7.37;5.60;;;;;;;-0.85;73.66;99233.20;1790024;80;25297;-69
2021/01/12 05:06:23;;;;;;;7.73;5.80;;;;;;;-0.85;73.53;99222.41;1789870;79;25266;-69
2021/01/12 05:08:56;;;;;;;8.37;6.40;;;;;;;-0.86;73.69;99223.30;1776829;78;25267;-69
2021/01/12 05:11:29;;;;;;;8.33;5.97;;;;;;;-0.86;73.67;99211.69;1825744;78;25058;-69
2021/01/12 05:14:03;;;;;;;10.33;6.70;;;;;;;-0.85;73.81;99217.25;1825887;78;25296;-69
2021/01/12 05:16:30;;;;;;;11.13;6.77;;;;;;;-0.85;73.83;99206.09;1825732;78;25315;-69
2021/01/12 05:18:57;;;;;;;12.23;7.13;;;;;;;-0.80;73.55;99205.01;1825712;78;25271;-69
2021/01/12 05:21:24;;;;;;;12.67;7.37;;;;;;;-0.85;73.58;99208.21;1793797;78;25678;-69
2021/01/12 05:24:05;;;;;;;16.23;8.50;;;;;;;-0.87;73.71;99203.56;1825628;78;25270;-69
2021/01/12 05:26:34;;;;;;;10.77;6.83;;;;;;;-0.85;73.58;99199.64;1825634;78;25319;-69
2021/01/12 05:29:05;;;;;;;15.03;8.03;;;;;;;-0.88;73.63;99188.95;1825713;78;25291;-69
2021/01/12 05:31:32;;;;;;;15.33;8.50;;;;;;;-0.94;73.85;99187.46;1825790;78;25298;-69
2021/01/12 05:34:07;;;;;;;10.23;6.50;;;;;;;-0.95;73.92;99171.56;1825576;78;25631;-69
2021/01/12 05:36:49;;;;;;;8.87;6.17;;;;;;;-0.95;73.84;99165.58;1825125;78;25659;-69
2021/01/12 05:39:21;;;;;;;9.50;6.57;;;;;;;-0.98;73.89;99161.81;1824496;78;25306;-69
2021/01/12 05:41:52;;;;;;;7.33;5.70;;;;;;;-1.02;73.96;99157.22;1825765;78;25255;-68
2021/01/12 05:44:22;;;;;;;7.50;5.50;;;;;;;-1.00;73.78;99156.70;1825729;78;25315;-70
2021/01/12 05:46:52;;;;;;;9.17;6.00;;;;;;;-1.00;73.68;99153.29;1825634;78;25302;-68
2021/01/12 05:49:22;;;;;;;8.40;5.77;;;;;;;-1.01;73.61;99155.47;1825697;78;25153;-69
2021/01/12 05:51:50;;;;;;;9.47;6.50;;;;;;;-1.06;73.74;99154.34;1825701;77;25341;-68
2021/01/12 05:54:33;;;;;;;9.53;6.23;;;;;;;-1.06;73.54;99149.64;1825840;78;25699;-69
2021/01/12 05:57:07;;;;;;;8.93;6.20;;;;;;;-1.08;73.44;99149.70;1825750;78;25208;-69
2021/01/12 05:59:35;;;;;;;9.63;6.30;;;;;;;-1.12;73.73;99140.40;1825640;78;25635;-69
2021/01/12 06:02:13;;;;;;;7.43;5.27;;;;;;;-1.12;73.63;99133.48;1825675;78;25205;-69
2021/01/12 06:04:40;;;;;;;9.30;6.10;;;;;;;-1.12;73.58;99133.48;1825043;78;25749;-68
2021/01/12 06:07:06;;;;;;;7.50;5.47;;;;;;;-1.13;73.45;99129.21;1825783;78;25181;-69
2021/01/12 06:09:33;;;;;;;7.93;5.80;;;;;;;-1.15;73.50;99125.02;1793666;78;25604;-69
2021/01/12 06:12:00;;;;;;;8.90;5.60;;;;;;;-1.20;73.67;99113.58;1820443;78;25231;-69
2021/01/12 06:14:28;;;;;;;7.37;5.50;;;;;;;-1.20;73.58;99122.61;1825695;78;25272;-69
2021/01/12 06:16:58;;;;;;;7.77;5.50;;;;;;;-1.23;73.62;99113.69;1825691;78;25146;-69
2021/01/12 06:19:27;;;;;;;7.07;5.40;;;;;;;-1.27;73.76;99112.14;1825850;78;25215;-69
2021/01/12 06:22:02;;;;;;;7.57;5.40;;;;;;;-1.26;73.72;99123.28;1825655;78;25189;-70
2021/01/12 06:24:43;;;;;;;8.47;5.53;;;;;;;-1.29;73.90;99124.26;1825585;78;25330;-69
2021/01/12 06:27:14;;;;;;;10.00;6.40;;;;;;;-1.27;74.01;99123.75;1825781;78;25361;-69
2021/01/12 06:29:45;;;;;;;8.53;6.53;;;;;;;-1.24;74.15;99125.36;1825682;78;25278;-68
2021/01/12 06:32:16;;;;;;;9.03;6.27;;;;;;;-1.22;73.97;99128.28;1825562;78;25773;-68
2021/01/12 06:34:43;;;;;;;8.43;6.13;;;;;;;-1.20;73.90;99129.06;1793971;78;25282;-69
2021/01/12 06:37:15;;;;;;;7.43;5.80;;;;;;;-1.17;74.08;99119.09;1825602;78;25271;-69
2021/01/12 06:39:44;;;;;;;7.23;5.93;;;;;;;-1.12;74.21;99116.71;1820702;78;25311;-68
2021/01/12 06:42:13;;;;;;;8.23;5.60;;;;;;;-1.04;74.15;99118.15;1825720;78;25256;-69
2021/01/12 06:44:40;;;;;;;8.47;5.83;;;;;;;-0.98;74.03;99117.47;1825761;78;25270;-68
2021/01/12 06:47:10;;;;;;;7.53;5.07;;;;;;;-0.89;73.94;99116.27;1825624;78;25630;-69
2021/01/12 06:49:38;;;;;;;9.90;6.63;;;;;;;-0.81;73.64;99120.68;1825535;78;25065;-69
2021/01/12 06:52:10;;;;;;;8.57;6.13;;;;;;;-0.73;73.26;99115.23;1825702;78;25698;-69
2021/01/12 06:54:43;;;;;;;10.70;6.93;;;;;;;-0.69;73.35;99115.48;1825726;78;25689;-68
2021/01/12 06:57:15;;;;;;;11.97;6.73;;;;;;;-0.61;72.74;99107.44;1825864;78;25310;-68
2021/01/12 06:59:46;;;;;;;13.10;8.67;;;;;;;-0.56;72.49;99111.97;1826008;78;25279;-68
2021/01/12 07:02:30;;;;;;;9.47;5.73;;;;;;;-0.52;72.27;99104.93;1825776;78;25722;-68
2021/01/12 07:05:01;;;;;;;9.70;6.27;;;;;;;-0.48;71.78;99108.63;1826006;78;25121;-68
2021/01/12 07:07:29;;;;;;;7.73;5.63;;;;;;;-0.46;71.65;99095.19;1794025;78;25616;-68
2021/01/12 07:10:10;;;;;;;7.20;5.50;;;;;;;-0.42;71.59;99092.88;1825799;78;25061;-69
2021/01/12 07:12:37;;;;;;;8.37;5.77;;;;;;;-0.38;71.47;99093.13;1825814;78;25211;-69
2021/01/12 07:15:11;;;;;;;9.40;5.70;;;;;;;-0.31;70.96;99090.30;1825829;78;25635;-69
2021/01/12 07:17:50;;;;;;;8.90;6.03;;;;;;;-0.29;70.71;99088.48;1825825;78;25227;-69
2021/01/12 07:20:26;;;;;;;11.20;6.07;;;;;;;-0.28;70.87;99078.55;1825815;78;25235;-69
2021/01/12 07:23:06;;;;;;;8.33;6.00;;;;;;;-0.24;70.88;99074.92;1825878;78;25133;-68
2021/01/12 07:25:39;;;;;;;9.57;5.77;;;;;;;-0.18;70.70;99072.09;1825844;78;25718;-69
2021/01/12 07:28:15;;;;;;;8.07;5.83;;;;;;;-0.14;70.40;99069.74;1825746;78;25640;-69
2021/01/12 07:30:45;;;;;;;9.03;5.83;;;;;;;-0.12;70.64;99057.59;1825782;78;25248;-70
2021/01/12 07:33:24;;;;;;;8.70;5.63;;;;;;;-0.07;70.52;99060.84;1824927;78;25280;-69
2021/01/12 07:35:58;;;;;;;8.67;5.70;;;;;;;0.01;70.29;99064.83;1825986;78;25299;-69
2021/01/12 07:38:26;;;;;;;9.10;5.40;;;;;;;0.05;70.18;99058.17;1825874;78;25172;-68
2021/01/12 07:40:57;;;;;;;16.10;10.20;;;;;;;0.09;70.09;99062.30;1825640;78;25714;-69
2021/01/12 07:43:25;;;;;;;12.77;9.20;;;;;;;0.16;69.94;99060.28;1825171;78;25564;-69
2021/01/12 07:45:54;;;;;;;19.63;11.73;;;;;;;0.17;70.17;99056.80;1825838;78;25346;-68
2021/01/12 07:48:21;;;;;;;12.53;9.17;;;;;;;0.22;70.27;99054.84;1825709;78;25649;-69
2021/01/12 07:50:49;;;;;;;9.27;5.23;;;;;;;0.28;69.93;99050.67;1825759;77;25077;-69
2021/01/12 07:53:16;;;;;;;9.27;6.40;;;;;;;0.30;70.22;99048.88;1825702;78;25338;-68
2021/01/12 07:55:46;;;;;;;12.10;7.80;;;;;;;0.36;70.02;99038.23;1825776;78;25259;-69
2021/01/12 07:58:22;;;;;;;10.67;7.03;;;;;;;0.39;70.18;99026.92;1825060;78;25153;-68
2021/01/12 08:00:48;;;;;;;8.10;6.07;;;;;;;0.47;70.04;99030.44;1825814;78;25244;-69
2021/01/12 08:03:16;;;;;;;10.10;6.67;;;;;;;0.52;69.67;99025.89;1825689;78;25643;-69
2021/01/12 08:05:43;;;;;;;11.20;6.90;;;;;;;0.50;70.14;99031.59;1820744;78;25113;-68
2021/01/12 08:08:12;;;;;;;10.80;6.53;;;;;;;0.52;70.33;99024.59;1825684;78;25134;-69
2021/01/12 08:10:41;;;;;;;18.23;10.57;;;;;;;0.58;69.79;99018.31;1807132;78;25165;-69
2021/01/12 08:13:12;;;;;;;28.63;16.63;;;;;;;0.62;69.64;99018.55;1801427;79;25265;-69
2021/01/12 08:15:43;;;;;;;136.30;66.27;;;;;;;0.58;70.05;99015.73;1801401;79;25169;-69
2021/01/12 08:18:15;;;;;;;19.50;11.57;;;;;;;0.61;70.27;99012.54;1801392;78;25644;-70
2021/01/12 08:20:43;;;;;;;35.67;20.87;;;;;;;0.67;70.01;99012.27;1801403;79;25552;-69
2021/01/12 08:23:11;;;;;;;20.07;12.63;;;;;;;0.65;70.07;99007.59;1801377;78;25287;-69
2021/01/12 08:25:38;;;;;;;17.80;11.43;;;;;;;0.71;69.88;99009.90;1801496;78;25166;-69
2021/01/12 08:28:08;;;;;;;20.10;12.00;;;;;;;0.72;70.00;98999.94;1801397;78;25730;-69
2021/01/12 08:30:35;;;;;;;13.60;8.10;;;;;;;0.77;69.94;98993.23;1801420;79;25256;-68
2021/01/12 08:33:16;;;;;;;15.77;8.33;;;;;;;0.78;69.93;98981.98;1801503;79;25103;-68
2021/01/12 08:35:47;;;;;;;16.50;8.97;;;;;;;0.80;70.17;98980.61;1801440;79;25276;-70
2021/01/12 08:38:14;;;;;;;16.20;9.47;;;;;;;0.83;70.20;98983.05;1801407;78;25714;-68
2021/01/12 08:40:44;;;;;;;18.63;9.63;;;;;;;0.87;70.40;98978.10;1801525;79;25118;-69
2021/01/12 08:43:15;;;;;;;23.83;11.40;;;;;;;0.92;70.39;98980.01;1771850;79;25276;-68
2021/01/12 08:45:42;;;;;;;18.43;10.30;;;;;;;0.97;70.44;98983.21;1801391;78;25265;-69
2021/01/12 08:48:15;;;;;;;17.53;9.43;;;;;;;1.08;69.92;98973.17;1801343;78;25122;-69
2021/01/12 08:50:45;;;;;;;14.50;7.50;;;;;;;1.06;70.24;98976.30;1801519;78;25161;-68
2021/01/12 08:53:17;;;;;;;22.30;11.73;;;;;;;1.11;70.54;98973.03;1801338;78;25067;-68
2021/01/12 08:55:45;;;;;;;30.13;13.30;;;;;;;1.21;70.31;98972.59;1799700;78;25256;-68
2021/01/12 08:58:13;;;;;;;14.47;7.90;;;;;;;1.25;69.95;98975.39;1801371;78;25266;-68
2021/01/12 09:00:41;;;;;;;22.90;12.00;;;;;;;1.29;70.03;98978.20;1801357;79;25209;-69
2021/01/12 09:03:12;;;;;;;20.70;10.17;;;;;;;1.27;70.25;98971.83;1801288;78;25189;-68
2021/01/12 09:05:41;;;;;;;19.80;10.20;;;;;;;1.31;70.55;98968.62;1801482;78;25121;-68
2021/01/12 09:08:12;;;;;;;18.07;10.60;;;;;;;1.36;70.68;98962.75;1801221;79;25197;-69
2021/01/12 09:10:39;;;;;;;28.17;14.60;;;;;;;1.42;70.44;98958.53;1801412;78;25275;-69
2021/01/12 09:13:07;;;;;;;23.33;11.83;;;;;;;1.46;70.81;98961.36;1801373;79;25312;-70
2021/01/12 09:15:37;;;;;;;9.27;6.70;;;;;;;1.44;70.91;98957.16;1801436;79;25617;-70
2021/01/12 09:18:23;;;;;;;17.93;10.13;;;;;;;1.48;71.18;98954.34;1801407;78;25711;-69
2021/01/12 09:20:56;;;;;;;15.63;8.80;;;;;;;1.48;71.46;98955.64;1801378;78;25711;-68
2021/01/12 09:23:25;;;;;;;16.87;9.67;;;;;;;1.56;71.37;98948.78;1801164;79;25134;-69
2021/01/12 09:28:37;;;;;;;14.47;8.30;;;;;;;1.67;71.62;98936.55;1848957;76;26862;-70
2021/01/12 09:31:12;;;;;;;19.20;9.90;;;;;;;1.67;71.55;98934.78;1819793;77;25298;-70
2021/01/12 09:33:42;;;;;;;13.83;7.60;;;;;;;1.71;71.56;98930.30;1819853;77;25326;-70
2021/01/12 09:36:14;;;;;;;20.03;10.00;;;;;;;1.68;71.78;98930.45;1819688;78;25267;-70
2021/01/12 09:38:48;;;;;;;29.73;14.23;;;;;;;1.62;72.26;98930.30;1819844;77;25184;-68
2021/01/12 09:41:23;;;;;;;24.27;12.87;;;;;;;1.64;72.40;98925.03;1819901;78;25302;-70
2021/01/12 09:43:50;;;;;;;13.13;8.00;;;;;;;1.66;72.52;98924.05;1819388;77;25255;-69
2021/01/12 09:46:17;;;;;;;17.10;9.87;;;;;;;1.66;72.65;98918.86;1819835;78;25283;-69
2021/01/12 09:48:44;;;;;;;19.73;10.67;;;;;;;1.67;72.69;98898.95;1819807;77;25211;-69
2021/01/12 09:51:11;;;;;;;15.43;9.00;;;;;;;1.58;73.06;98898.98;1799209;77;25696;-69
2021/01/12 09:53:47;;;;;;;25.37;12.90;;;;;;;1.60;73.09;98898.91;1787524;80;25210;-69
2021/01/12 09:58:51;;;;;;;12.03;7.60;;;;;;;1.74;72.99;98871.78;1849754;76;26810;-69
2021/01/12 10:01:19;;;;;;;15.90;9.50;;;;;;;1.73;72.93;98879.20;1819895;78;25183;-68
2021/01/12 10:03:47;;;;;;;10.73;7.00;;;;;;;1.76;72.76;98875.16;1819862;78;25603;-69
2021/01/12 10:06:27;;;;;;;13.20;7.77;;;;;;;1.84;72.13;98868.23;1788080;78;25675;-70
2021/01/12 10:08:52;;;;;;;25.30;16.77;;;;;;;1.76;72.66;98868.67;1819376;77;25191;-69
2021/01/12 10:11:20;;;;;;;30.63;21.97;;;;;;;1.87;71.86;98862.89;1819937;78;25187;-68
2021/01/12 10:13:47;;;;;;;48.33;32.47;;;;;;;1.84;71.86;98861.31;1788931;78;25387;-68
2021/01/12 10:16:23;;;;;;;21.37;11.97;;;;;;;1.91;71.66;98855.34;1819671;78;25214;-68
2021/01/12 10:18:50;;;;;;;16.83;8.80;;;;;;;1.98;70.97;98855.84;1815418;77;25315;-68
2021/01/12 10:21:18;;;;;;;18.17;10.67;;;;;;;1.94;71.16;98856.44;1819774;77;25689;-69
2021/01/12 10:23:45;;;;;;;15.07;9.53;;;;;;;1.98;70.78;98847.59;1819788;77;25615;-68
2021/01/12 10:26:16;;;;;;;13.77;8.27;;;;;;;1.98;70.72;98844.17;1788542;77;25297;-69
2021/01/12 10:28:47;;;;;;;20.30;10.70;;;;;;;2.00;70.48;98847.52;1788221;78;25683;-69
2021/01/12 10:31:15;;;;;;;13.00;8.37;;;;;;;1.98;70.66;98838.98;1819701;78;25349;-68
2021/01/12 10:33:42;;;;;;;14.13;7.13;;;;;;;2.01;70.66;98832.30;1819658;77;25203;-68
2021/01/12 10:36:14;;;;;;;23.67;13.07;;;;;;;2.07;70.08;98826.79;1819676;77;25550;-68
2021/01/12 10:38:41;;;;;;;30.50;13.73;;;;;;;2.02;70.46;98827.50;1788353;78;25202;-69
2021/01/12 10:41:09;;;;;;;34.70;15.67;;;;;;;2.07;69.74;98826.79;1819750;77;25686;-69
2021/01/12 10:43:38;;;;;;;14.23;8.97;;;;;;;2.05;69.91;98816.97;1819616;77;25354;-69
2021/01/12 10:46:05;;;;;;;14.57;8.50;;;;;;;2.12;69.52;98822.17;1819735;77;25235;-68
2021/01/12 10:48:32;;;;;;;15.53;8.93;;;;;;;2.09;69.65;98820.22;1819712;77;25278;-69
2021/01/12 10:50:58;;;;;;;12.77;8.10;;;;;;;2.05;70.18;98814.38;1801772;78;25708;-69
2021/01/12 10:53:25;;;;;;;12.37;8.10;;;;;;;2.08;69.82;98816.80;1787531;79;25289;-69
2021/01/12 10:55:52;;;;;;;21.10;12.10;;;;;;;2.06;69.89;98799.16;1787369;79;25263;-69
2021/01/12 10:58:19;;;;;;;12.00;8.17;;;;;;;2.01;70.19;98803.77;1793169;78;25297;-69
2021/01/12 11:00:47;;;;;;;11.37;7.77;;;;;;;2.03;69.94;98794.17;1796586;78;25324;-67
2021/01/12 11:03:14;;;;;;;10.33;7.43;;;;;;;1.98;70.14;98793.12;1796589;78;25071;-68
2021/01/12 11:05:42;;;;;;;14.03;8.37;;;;;;;2.03;69.78;98791.11;1796592;79;25290;-68
2021/01/12 11:08:09;;;;;;;13.27;8.30;;;;;;;1.98;70.04;98781.45;1796175;79;25618;-70
2021/01/12 11:10:36;;;;;;;17.57;10.80;;;;;;;1.98;70.24;98777.56;1795894;79;25268;-68
2021/01/12 11:13:05;;;;;;;16.30;10.47;;;;;;;2.08;69.67;98775.30;1795935;79;25273;-69
2021/01/12 11:15:32;;;;;;;25.43;17.00;;;;;;;2.06;69.97;98765.91;1795843;78;25759;-68
2021/01/12 11:18:00;;;;;;;36.93;23.97;;;;;;;2.05;69.99;98767.68;1795824;79;25194;-69
2021/01/12 11:20:29;;;;;;;41.77;27.33;;;;;;;2.03;70.31;98765.17;1769419;79;25264;-68
2021/01/12 11:22:56;;;;;;;39.13;25.57;;;;;;;2.05;70.40;98756.01;1795921;78;25267;-69
2021/01/12 11:25:23;;;;;;;26.80;18.50;;;;;;;2.05;70.58;98754.71;1795737;78;25332;-70
2021/01/12 11:27:50;;;;;;;28.80;22.37;;;;;;;2.07;70.90;98755.92;1795881;78;25604;-68
2021/01/12 11:30:20;;;;;;;31.33;24.73;;;;;;;2.03;71.26;98750.08;1769658;79;25255;-69
2021/01/12 11:32:48;;;;;;;28.93;19.53;;;;;;;1.96;71.97;98752.19;1769187;79;25696;-69
2021/01/12 11:35:17;;;;;;;19.73;15.60;;;;;;;1.89;72.60;98746.12;1796044;78;25186;-69
2021/01/12 11:37:48;;;;;;;13.17;10.00;;;;;;;1.85;73.31;98742.87;1743808;79;25214;-69
2021/01/12 11:40:15;;;;;;;12.43;9.70;;;;;;;1.80;73.94;98744.41;1796104;78;25059;-69
2021/01/12 11:42:43;;;;;;;9.77;7.57;;;;;;;1.75;74.69;98741.70;1789630;78;25286;-69
2021/01/12 11:45:12;;;;;;;12.73;9.23;;;;;;;1.72;75.22;98732.33;1788493;79;25283;-69
2021/01/12 11:47:40;;;;;;;11.40;9.23;;;;;;;1.71;75.73;98737.16;1757374;80;25062;-69